createdAt,value
2019-05-13T00:00:13.995Z,16.35
2019-05-13T00:05:18.183Z,16.00
2019-05-13T00:10:24.327Z,16.29
2019-05-13T00:15:29.213Z,16.50
2019-05-13T00:20:34.167Z,16.63
2019-05-13T00:25:38.910Z,16.22
2019-05-13T00:30:44.468Z,16.42
2019-05-13T00:35:49.412Z,15.98
2019-05-13T00:40:54.665Z,15.81
2019-05-13T00:45:59.416Z,15.78
2019-05-13T00:51:04.103Z,14.78
2019-05-13T00:56:09.210Z,15.29
2019-05-13T01:01:14.019Z,14.63
2019-05-13T01:06:18.800Z,15.16
2019-05-13T01:11:23.796Z,15.15
2019-05-13T01:16:28.382Z,15.50
2019-05-13T01:21:34.517Z,15.03
2019-05-13T01:26:39.520Z,14.74
2019-05-13T01:31:44.070Z,15.36
2019-05-13T01:36:48.696Z,15.25
2019-05-13T01:41:54.042Z,14.25
2019-05-13T01:46:59.101Z,14.75
2019-05-13T01:52:04.150Z,14.06
2019-05-13T01:57:09.111Z,14.45
2019-05-13T02:02:13.964Z,14.04
2019-05-13T02:07:18.690Z,14.56
2019-05-13T02:12:24.038Z,14.78
2019-05-13T02:17:28.883Z,14.49
2019-05-13T02:22:33.746Z,14.57
2019-05-13T02:27:38.480Z,14.77
2019-05-13T02:32:43.332Z,14.69
2019-05-13T02:37:48.175Z,14.15
2019-05-13T02:42:52.731Z,13.41
2019-05-13T02:47:57.426Z,14.00
2019-05-13T02:53:02.547Z,14.21
2019-05-13T02:58:07.352Z,14.15
2019-05-13T03:03:13.107Z,13.83
2019-05-13T03:08:34.012Z,13.96
2019-05-13T03:13:24.409Z,13.64
2019-05-13T03:18:33.107Z,13.69
2019-05-13T03:23:35.270Z,13.45
2019-05-13T03:28:43.166Z,14.13
2019-05-13T03:33:47.656Z,14.48
2019-05-13T03:39:05.712Z,13.75
2019-05-13T03:44:02.326Z,14.41
2019-05-13T03:49:05.338Z,14.01
2019-05-13T03:54:12.929Z,14.20
2019-05-13T03:59:17.683Z,15.03
2019-05-13T04:04:23.499Z,15.16
2019-05-13T04:09:32.620Z,14.14
2019-05-13T04:14:36.224Z,14.20
2019-05-13T04:19:42.359Z,14.79
2019-05-13T04:24:49.246Z,14.69
2019-05-13T04:29:54.338Z,13.64
2019-05-13T04:34:59.078Z,14.38
2019-05-13T04:40:05.663Z,15.08
2019-05-13T04:45:13.394Z,15.06
2019-05-13T04:50:16.577Z,15.21
2019-05-13T04:55:22.968Z,15.19
2019-05-13T05:01:08.525Z,15.24
2019-05-13T05:06:14.439Z,15.26
2019-05-13T05:11:38.743Z,15.89
2019-05-13T05:17:16.210Z,15.38
2019-05-13T05:22:39.221Z,15.89
2019-05-13T05:27:58.257Z,16.20
2019-05-13T05:33:31.946Z,17.57
2019-05-13T05:39:06.466Z,18.19
2019-05-13T05:44:12.510Z,18.98
2019-05-13T05:49:17.384Z,19.69
2019-05-13T05:54:22.132Z,19.41
2019-05-13T05:59:26.870Z,19.33
2019-05-13T06:04:32.516Z,19.58
2019-05-13T06:09:37.382Z,20.21
2019-05-13T06:14:42.409Z,20.10
2019-05-13T06:19:47.286Z,19.98
2019-05-13T06:24:52.278Z,20.39
2019-05-13T06:29:57.279Z,19.26
2019-05-13T06:35:02.567Z,19.04
2019-05-13T06:40:09.026Z,19.69
2019-05-13T06:45:13.763Z,19.36
2019-05-13T06:50:18.509Z,19.16
2019-05-13T06:55:23.864Z,19.00
2019-05-13T07:00:28.492Z,19.25
2019-05-13T07:05:33.250Z,19.47
2019-05-13T07:10:41.260Z,19.40
2019-05-13T07:15:46.576Z,19.13
2019-05-13T07:20:53.031Z,20.20
2019-05-13T07:25:57.550Z,19.93
2019-05-13T07:31:03.834Z,20.17
2019-05-13T07:36:12.436Z,20.03
2019-05-13T07:41:14.853Z,19.11
2019-05-13T07:46:21.633Z,20.34
2019-05-13T07:51:25.867Z,20.32
2019-05-13T07:56:32.427Z,21.29
2019-05-13T08:01:36.899Z,22.12
2019-05-13T08:06:41.750Z,19.91
2019-05-13T08:12:04.315Z,21.82
2019-05-13T08:16:52.869Z,22.13
2019-05-13T08:21:57.615Z,22.75
2019-05-13T08:27:02.574Z,23.01
2019-05-13T08:32:07.778Z,23.24
2019-05-13T08:37:13.512Z,23.68
2019-05-13T08:42:20.109Z,23.73
2019-05-13T08:47:24.748Z,23.38
2019-05-13T08:52:31.402Z,23.14
2019-05-13T08:57:35.626Z,23.56
2019-05-13T09:02:42.026Z,23.34
2019-05-13T09:07:47.020Z,23.23
2019-05-13T09:12:52.343Z,24.17
2019-05-13T09:17:57.393Z,22.95
2019-05-13T09:23:02.218Z,23.30
2019-05-13T09:28:06.958Z,24.13
2019-05-13T09:33:11.732Z,23.31
2019-05-13T09:38:16.575Z,24.12
2019-05-13T09:43:22.153Z,24.35
2019-05-13T09:48:27.171Z,24.00
2019-05-13T09:53:32.705Z,23.84
2019-05-13T09:58:37.804Z,23.98
2019-05-13T10:03:53.827Z,24.02
2019-05-13T10:08:49.019Z,23.60
2019-05-13T10:13:55.600Z,23.37
2019-05-13T10:19:01.655Z,22.64
2019-05-13T10:24:06.831Z,23.97
2019-05-13T10:29:12.601Z,23.42
2019-05-13T10:34:17.342Z,23.76
2019-05-13T10:39:22.566Z,22.53
2019-05-13T10:44:27.545Z,21.86
2019-05-13T10:49:33.044Z,22.95
2019-05-13T10:54:38.118Z,23.82
2019-05-13T10:59:43.642Z,24.37
2019-05-13T11:04:48.690Z,22.91
2019-05-13T11:09:53.423Z,22.98
2019-05-13T11:14:58.163Z,22.15
2019-05-13T11:20:03.667Z,23.03
2019-05-13T11:25:08.675Z,21.86
2019-05-13T11:30:13.415Z,22.90
2019-05-13T11:35:19.500Z,24.33
2019-05-13T11:40:24.340Z,23.97
2019-05-13T11:45:31.576Z,24.50
2019-05-13T11:50:36.487Z,23.96
2019-05-13T11:55:42.429Z,23.03
2019-05-13T12:00:53.240Z,24.12
2019-05-13T12:06:01.542Z,23.32
2019-05-13T12:11:06.330Z,23.79
2019-05-13T12:16:12.823Z,23.77
2019-05-13T12:21:19.477Z,24.42
2019-05-13T12:26:24.440Z,23.49
2019-05-13T12:31:33.371Z,24.15
2019-05-13T12:36:35.561Z,24.07
2019-05-13T12:41:42.827Z,24.26
2019-05-13T12:46:50.406Z,24.13
2019-05-13T12:52:00.320Z,24.58
2019-05-13T12:56:59.936Z,24.41
2019-05-13T13:02:06.631Z,24.53
2019-05-13T13:07:13.373Z,25.00
2019-05-13T13:12:18.302Z,24.91
2019-05-13T13:17:24.740Z,25.02
2019-05-13T13:22:32.074Z,24.89
2019-05-13T13:28:03.802Z,24.39
2019-05-13T13:32:45.156Z,24.32
2019-05-13T13:37:49.291Z,24.77
2019-05-13T13:42:54.150Z,24.52
2019-05-13T13:48:03.608Z,24.81
2019-05-13T13:53:05.488Z,24.35
2019-05-13T13:58:13.902Z,23.91
2019-05-13T14:03:16.617Z,23.93
2019-05-13T14:08:22.325Z,24.96
2019-05-13T14:13:27.108Z,24.32
2019-05-13T14:18:32.365Z,24.91
2019-05-13T14:23:38.643Z,24.42
2019-05-13T14:28:43.805Z,24.39
2019-05-13T14:33:48.744Z,23.97
2019-05-13T14:38:56.873Z,24.15
2019-05-13T14:44:03.674Z,24.67
2019-05-13T14:49:12.321Z,24.50
2019-05-13T14:54:16.529Z,23.71
2019-05-13T14:59:22.238Z,23.24
2019-05-13T15:04:27.893Z,23.94
2019-05-13T15:09:32.815Z,23.81
2019-05-13T15:14:40.009Z,23.88
2019-05-13T15:19:43.732Z,24.40
2019-05-13T15:24:48.364Z,23.48
2019-05-13T15:29:53.010Z,23.44
2019-05-13T15:34:57.654Z,23.77
2019-05-13T15:40:02.482Z,24.32
2019-05-13T15:45:07.355Z,24.40
2019-05-13T15:50:12.436Z,24.50
2019-05-13T15:55:17.199Z,24.61
2019-05-13T16:00:22.100Z,24.44
2019-05-13T16:05:26.730Z,24.25
2019-05-13T16:10:31.407Z,24.22
2019-05-13T16:15:36.327Z,24.35
2019-05-13T16:20:44.443Z,24.19
2019-05-13T16:25:47.456Z,24.14
2019-05-13T16:30:53.220Z,23.94
2019-05-13T16:35:57.968Z,23.53
2019-05-13T16:41:03.347Z,23.65
2019-05-13T16:46:08.274Z,23.60
2019-05-13T16:51:13.118Z,22.19
2019-05-13T16:56:26.872Z,21.91
2019-05-13T17:01:24.173Z,22.21
2019-05-13T17:06:28.893Z,22.50
2019-05-13T17:11:33.627Z,22.60
2019-05-13T17:16:41.467Z,22.28
2019-05-13T17:21:46.426Z,21.75
2019-05-13T17:26:52.283Z,22.00
2019-05-13T17:31:57.522Z,22.34
2019-05-13T17:37:02.915Z,22.27
2019-05-13T17:42:08.238Z,22.34
2019-05-13T17:47:13.198Z,22.36
2019-05-13T17:52:18.773Z,21.37
2019-05-13T17:57:23.902Z,21.68
2019-05-13T18:02:28.699Z,21.44
2019-05-13T18:07:35.594Z,21.62
2019-05-13T18:12:41.742Z,21.64
2019-05-13T18:17:47.085Z,20.77
2019-05-13T18:22:52.466Z,21.36
2019-05-13T18:28:01.477Z,21.47
2019-05-13T18:33:06.341Z,20.40
2019-05-13T18:38:12.119Z,20.89
2019-05-13T18:43:18.578Z,21.22
2019-05-13T18:48:23.333Z,21.30
2019-05-13T18:53:28.780Z,21.36
2019-05-13T18:58:36.591Z,20.35
2019-05-13T19:03:43.493Z,20.63
2019-05-13T19:08:48.250Z,20.21
2019-05-13T19:13:53.913Z,19.45
2019-05-13T19:19:11.822Z,20.21
2019-05-13T19:24:06.460Z,20.13
2019-05-13T19:29:11.632Z,20.33
2019-05-13T19:34:16.458Z,20.30
2019-05-13T19:39:21.627Z,20.79
2019-05-13T19:44:26.558Z,20.95
2019-05-13T19:49:36.215Z,20.80
2019-05-13T19:54:38.096Z,20.73
2019-05-13T19:59:44.066Z,20.30
2019-05-13T20:04:48.844Z,19.90
2019-05-13T20:09:53.656Z,20.51
2019-05-13T20:14:58.300Z,20.33
2019-05-13T20:20:03.145Z,20.60
2019-05-13T20:25:12.429Z,20.27
2019-05-13T20:30:15.703Z,20.36
2019-05-13T20:35:21.881Z,19.35
2019-05-13T20:40:26.904Z,19.64
2019-05-13T20:45:31.778Z,20.14
2019-05-13T20:50:36.940Z,19.48
2019-05-13T20:55:41.914Z,19.84
2019-05-13T21:00:46.933Z,19.27
2019-05-13T21:05:52.214Z,20.06
2019-05-13T21:10:57.136Z,19.12
2019-05-13T21:16:03.520Z,19.10
2019-05-13T21:21:08.258Z,19.15
2019-05-13T21:26:15.457Z,19.74
2019-05-13T21:31:21.366Z,20.11
2019-05-13T21:36:25.669Z,20.02
2019-05-13T21:41:31.646Z,19.32
2019-05-13T21:46:36.602Z,19.94
2019-05-13T21:51:41.774Z,19.72
2019-05-13T21:56:47.722Z,19.52
2019-05-13T22:01:52.457Z,19.99
2019-05-13T22:06:57.203Z,20.16
2019-05-13T22:12:02.153Z,20.04
2019-05-13T22:17:06.999Z,19.94
2019-05-13T22:22:11.843Z,20.00
2019-05-13T22:27:16.696Z,19.02
2019-05-13T22:32:21.993Z,18.96
2019-05-13T22:37:27.198Z,18.55
2019-05-13T22:42:32.215Z,19.23
2019-05-13T22:47:37.206Z,18.32
2019-05-13T22:52:42.075Z,18.45
2019-05-13T22:57:46.785Z,18.87
2019-05-13T23:02:52.442Z,18.49
2019-05-13T23:07:57.408Z,18.07
2019-05-13T23:13:02.279Z,17.84
2019-05-13T23:18:08.116Z,18.40
2019-05-13T23:23:12.756Z,18.16
2019-05-13T23:28:17.498Z,18.64
2019-05-13T23:33:22.463Z,17.82
2019-05-13T23:38:28.834Z,17.93
2019-05-13T23:43:34.715Z,17.89
2019-05-13T23:48:41.259Z,18.01
2019-05-13T23:53:45.823Z,17.94
2019-05-13T23:58:51.934Z,18.08
